Time;durP1;ratioP1;P1;durP2;ratioP2;P2;SDS_P1;SDS_P2;PMS_P1;PMS_P2;Temp;Humidity;BMP_temperature;BMP_pressure;BME280_temperature;BME280_humidity;BME280_pressure;Samples;Min_cycle;Max_cycle;Signal;HPM_P1;HPM_P2
2022/03/24 00:02:19;;;;;;;3.50;3.40;;;;;;;3.89;68.22;102255.22;6086729;23;20485;-68
2022/03/24 00:04:46;;;;;;;4.63;4.32;;;;;;;4.74;68.36;102411.16;6081433;23;20044;-68
2022/03/24 00:07:12;;;;;;;4.00;3.80;;;;;;;4.46;69.62;102373.91;6088519;23;20509;-68
2022/03/24 00:09:39;;;;;;;5.85;5.55;;;;;;;4.42;69.85;102372.16;6080827;23;20035;-68
2022/03/24 00:12:06;;;;;;;3.60;3.50;;;;;;;4.79;69.35;102433.69;6106541;23;20502;-68
2022/03/24 00:14:33;;;;;;;4.60;4.40;;;;;;;3.71;68.99;102242.19;6084816;23;20027;-69
2022/03/24 00:16:59;;;;;;;4.25;4.05;;;;;;;4.36;68.97;102355.69;6085499;23;20122;-68
2022/03/24 00:19:26;;;;;;;3.60;3.50;;;;;;;4.11;69.08;102317.53;6084701;23;20021;-68
2022/03/24 00:21:52;;;;;;;4.50;4.30;;;;;;;4.51;67.74;102377.34;6081637;23;20053;-69
2022/03/24 00:24:19;;;;;;;3.42;3.28;;;;;;;4.77;67.98;102438.03;6082996;23;20005;-68
2022/03/24 00:26:46;;;;;;;5.70;5.47;;;;;;;4.02;67.95;102297.63;6085753;23;20083;-68
2022/03/24 00:29:12;;;;;;;3.63;3.53;;;;;;;4.75;67.67;102423.28;6084080;23;20084;-68
2022/03/24 00:31:39;;;;;;;7.03;5.80;;;;;;;4.61;67.70;102402.50;6085626;23;20016;-68
2022/03/24 00:34:05;;;;;;;3.80;3.60;;;;;;;3.17;67.39;102157.34;6084172;23;20002;-68
2022/03/24 00:36:32;;;;;;;5.03;4.57;;;;;;;4.62;68.66;102399.03;6086947;23;20040;-68
2022/03/24 00:38:58;;;;;;;4.10;3.90;;;;;;;4.65;68.59;102414.63;6081415;23;20049;-68
2022/03/24 00:41:25;;;;;;;4.85;4.60;;;;;;;4.23;67.81;102347.88;6086434;23;20045;-68
2022/03/24 00:43:51;;;;;;;3.92;3.72;;;;;;;4.43;68.34;102382.56;6080808;23;20030;-68
2022/03/24 00:46:23;;;;;;;3.70;3.50;;;;;;;4.42;68.28;102387.75;6082864;23;20030;-68
2022/03/24 00:48:51;;;;;;;4.53;4.28;;;;;;;4.53;68.37;102415.50;6080990;23;20022;-68
2022/03/24 00:51:18;;;;;;;3.22;3.13;;;;;;;4.53;68.63;102414.59;6083201;23;20033;-68
2022/03/24 00:53:46;;;;;;;6.53;6.22;;;;;;;4.48;69.20;102414.63;6083142;23;20083;-68
2022/03/24 00:56:12;;;;;;;3.72;3.53;;;;;;;4.44;68.90;102410.28;6087064;23;20018;-68
2022/03/24 00:58:39;;;;;;;5.35;5.05;;;;;;;4.33;68.65;102399.88;6079664;23;20088;-68
2022/03/24 01:01:11;;;;;;;3.75;3.55;;;;;;;4.34;69.12;102403.34;6086134;23;20050;-68
2022/03/24 01:03:39;;;;;;;4.68;4.47;;;;;;;2.83;69.08;102147.72;6075640;23;20081;-68
2022/03/24 01:06:07;;;;;;;4.13;3.85;;;;;;;4.25;68.77;102386.00;5962293;23;20402;-68
2022/03/24 01:08:34;;;;;;;4.75;4.55;;;;;;;4.31;69.01;102404.22;6089214;23;20036;-68
2022/03/24 01:11:05;;;;;;;3.20;3.10;;;;;;;4.25;69.52;102401.59;6050942;23;20065;-68
2022/03/24 01:13:34;;;;;;;4.85;4.65;;;;;;;4.07;69.72;102368.66;6078937;23;20030;-69
2022/03/24 01:16:02;;;;;;;3.40;3.30;;;;;;;4.18;70.08;102397.25;6060717;23;20014;-69
2022/03/24 01:18:29;;;;;;;4.60;4.20;;;;;;;4.19;69.82;102412.84;6082255;23;20021;-70
2022/03/24 01:20:55;;;;;;;3.40;3.25;;;;;;;4.03;69.63;102387.72;6082478;23;20084;-68
2022/03/24 01:23:25;;;;;;;3.75;3.55;;;;;;;4.06;70.37;102402.44;6087117;23;20094;-68
2022/03/24 01:25:54;;;;;;;3.60;3.30;;;;;;;3.78;70.13;102350.41;6080839;23;21149;-69
2022/03/24 01:28:21;;;;;;;4.68;4.30;;;;;;;4.08;70.75;102406.75;6091709;23;20471;-67
2022/03/24 01:30:47;;;;;;;4.50;4.25;;;;;;;4.03;71.17;102405.00;6080709;23;20022;-69
2022/03/24 01:33:14;;;;;;;4.30;4.00;;;;;;;3.89;71.30;102385.06;6090774;23;20049;-69
2022/03/24 01:35:40;;;;;;;5.13;4.90;;;;;;;3.87;71.08;102384.22;6085498;23;20002;-67
2022/03/24 01:38:07;;;;;;;3.25;3.15;;;;;;;3.94;71.47;102404.13;6079703;23;20085;-69
2022/03/24 01:40:33;;;;;;;5.68;5.28;;;;;;;3.91;71.72;102398.03;6086722;23;20043;-69
2022/03/24 01:43:00;;;;;;;3.65;3.45;;;;;;;3.88;71.60;102398.91;6115277;23;20021;-67
2022/03/24 01:45:27;;;;;;;3.42;3.25;;;;;;;2.56;72.54;102198.59;6090822;23;20029;-69
2022/03/24 01:47:54;;;;;;;4.75;4.55;;;;;;;3.65;72.81;102372.00;6084449;23;20053;-69
2022/03/24 01:50:21;;;;;;;4.40;4.15;;;;;;;3.57;72.41;102356.41;6086374;23;20029;-69
2022/03/24 01:52:47;;;;;;;3.65;3.47;;;;;;;3.63;73.17;102385.00;6065047;23;20025;-69
2022/03/24 01:55:14;;;;;;;3.80;3.60;;;;;;;3.43;74.14;102358.94;6086284;23;20104;-69
2022/03/24 01:57:41;;;;;;;6.32;5.97;;;;;;;3.52;73.91;102394.44;6084754;23;20040;-66
2022/03/24 02:00:09;;;;;;;3.65;3.47;;;;;;;3.38;74.22;102404.75;6087810;23;20031;-68
2022/03/24 02:02:37;;;;;;;4.78;4.57;;;;;;;3.23;74.64;102364.03;6084245;23;20108;-69
2022/03/24 02:05:04;;;;;;;5.82;4.40;;;;;;;3.16;75.09;102364.88;6088480;23;20021;-69
2022/03/24 02:07:32;;;;;;;4.45;4.25;;;;;;;1.55;74.97;102101.28;6100879;23;20357;-67
2022/03/24 02:09:59;;;;;;;3.15;3.05;;;;;;;3.27;75.51;102390.84;6095166;23;20040;-69
2022/03/24 02:12:26;;;;;;;3.28;3.17;;;;;;;3.26;75.87;102413.34;6089723;23;20675;-69
2022/03/24 02:14:57;;;;;;;4.85;4.55;;;;;;;3.23;75.51;102392.59;6089204;23;20014;-69
2022/03/24 02:17:28;;;;;;;3.60;3.30;;;;;;;3.20;76.08;102389.97;6098225;23;20089;-66
2022/03/24 02:19:57;;;;;;;3.20;3.10;;;;;;;3.11;76.60;102395.97;6082366;23;21270;-68
2022/03/24 02:22:28;;;;;;;3.08;2.97;;;;;;;3.18;77.08;102389.09;6068402;23;20089;-69
2022/03/24 02:24:55;;;;;;;3.95;3.75;;;;;;;1.82;76.66;102159.28;6082698;23;20604;-67
2022/03/24 02:27:23;;;;;;;3.10;3.00;;;;;;;3.16;76.15;102386.47;6060007;23;20101;-66
2022/03/24 02:29:51;;;;;;;3.17;3.08;;;;;;;3.15;75.97;102383.91;6087087;23;20455;-66
2022/03/24 02:32:19;;;;;;;3.55;3.40;;;;;;;3.14;77.11;102382.16;6084256;23;20029;-67
2022/03/24 02:34:51;;;;;;;6.53;6.20;;;;;;;3.14;76.89;102383.00;6082444;23;20014;-66
2022/03/24 02:37:23;;;;;;;3.10;3.00;;;;;;;2.95;76.94;102352.66;6091016;23;20105;-67
2022/03/24 02:39:52;;;;;;;3.80;3.63;;;;;;;3.16;76.70;102389.06;6085742;23;20354;-69
2022/03/24 02:42:21;;;;;;;4.22;4.03;;;;;;;3.16;76.48;102381.28;6089837;23;20010;-69
2022/03/24 02:44:51;;;;;;;3.95;3.80;;;;;;;1.70;76.81;102136.75;6078842;23;20660;-69
2022/03/24 02:47:17;;;;;;;3.97;3.78;;;;;;;3.16;76.64;102389.06;6084614;23;20029;-69
2022/03/24 02:49:46;;;;;;;4.75;4.55;;;;;;;3.16;77.03;102385.63;6087123;23;20634;-68
2022/03/24 02:52:13;;;;;;;3.75;3.55;;;;;;;3.05;77.30;102372.59;6078136;23;20096;-68
2022/03/24 02:54:41;;;;;;;7.43;7.03;;;;;;;3.12;77.04;102387.31;6083090;23;20033;-68
2022/03/24 02:57:08;;;;;;;3.38;3.20;;;;;;;3.10;77.15;102385.59;6080608;23;20160;-68
2022/03/24 02:59:35;;;;;;;4.93;4.72;;;;;;;2.95;76.96;102363.88;6081876;23;20029;-67
2022/03/24 03:02:06;;;;;;;4.13;3.78;;;;;;;3.05;76.62;102385.56;6090173;23;20073;-69
2022/03/24 03:04:34;;;;;;;5.03;4.72;;;;;;;3.02;77.15;102392.44;6082218;23;20018;-68
2022/03/24 03:07:02;;;;;;;3.55;3.45;;;;;;;2.96;77.35;102388.94;6088010;23;20014;-67
2022/03/24 03:09:33;;;;;;;3.13;3.03;;;;;;;2.74;77.13;102358.56;6083043;23;20025;-67
2022/03/24 03:12:00;;;;;;;4.93;4.32;;;;;;;2.78;77.17;102371.53;6098060;23;20365;-67
2022/03/24 03:14:30;;;;;;;4.20;3.72;;;;;;;2.85;77.04;102388.03;6083840;23;20018;-66
2022/03/24 03:16:58;;;;;;;4.72;4.45;;;;;;;2.82;77.74;102387.13;6086747;23;20133;-67
2022/03/24 03:19:25;;;;;;;3.80;3.60;;;;;;;2.76;78.01;102387.94;6088164;23;20022;-68
2022/03/24 03:21:52;;;;;;;3.30;3.20;;;;;;;2.71;77.78;102394.84;6078855;23;20022;-67
2022/03/24 03:24:22;;;;;;;3.33;3.22;;;;;;;2.66;77.99;102394.78;6085278;23;20024;-68
2022/03/24 03:26:52;;;;;;;4.20;4.00;;;;;;;2.59;78.34;102395.59;6081809;23;20021;-68
2022/03/24 03:29:21;;;;;;;4.20;3.90;;;;;;;2.51;78.19;102395.53;6074985;23;20074;-67
2022/03/24 03:31:48;;;;;;;4.95;4.65;;;;;;;2.44;79.16;102398.91;6087266;23;20020;-67
2022/03/24 03:34:15;;;;;;;3.05;2.95;;;;;;;2.40;79.31;102392.81;6085981;23;20641;-68
2022/03/24 03:36:42;;;;;;;5.63;5.32;;;;;;;0.89;79.64;102149.78;6081512;23;20568;-68
2022/03/24 03:39:09;;;;;;;3.00;2.90;;;;;;;1.17;79.41;102194.06;6092606;23;20064;-66
2022/03/24 03:41:37;;;;;;;5.00;4.70;;;;;;;2.38;80.13;102404.91;6082500;23;20366;-69
2022/03/24 03:44:04;;;;;;;4.40;4.20;;;;;;;2.35;80.33;102404.03;6089460;23;20097;-67
2022/03/24 03:46:31;;;;;;;3.33;3.22;;;;;;;2.36;79.81;102409.19;6082652;23;20101;-66
2022/03/24 03:48:58;;;;;;;2.90;2.80;;;;;;;1.02;80.08;102181.81;6083540;23;20114;-69
2022/03/24 03:51:27;;;;;;;3.85;3.65;;;;;;;2.27;80.52;102400.50;6087653;23;20088;-68
2022/03/24 03:53:55;;;;;;;3.97;3.78;;;;;;;2.27;81.25;102406.53;6083113;23;20322;-66
2022/03/24 03:56:21;;;;;;;3.10;3.00;;;;;;;2.23;81.12;102404.78;6063293;23;20117;-66
2022/03/24 03:58:48;;;;;;;3.42;3.33;;;;;;;1.01;81.14;102198.19;6080611;23;20356;-66
2022/03/24 04:01:14;;;;;;;3.08;2.97;;;;;;;2.16;81.10;102408.16;6083620;23;20084;-69
2022/03/24 04:03:42;;;;;;;6.93;6.47;;;;;;;1.83;81.07;102354.31;6080669;23;20041;-67
2022/03/24 04:06:10;;;;;;;3.67;3.53;;;;;;;1.90;81.39;102374.22;6079406;23;20085;-67
2022/03/24 04:08:38;;;;;;;5.50;5.30;;;;;;;2.06;81.68;102409.75;6082609;23;20081;-69
2022/03/24 04:11:09;;;;;;;4.15;3.88;;;;;;;2.01;81.02;102410.59;6082206;23;20403;-67
2022/03/24 04:13:38;;;;;;;5.88;5.55;;;;;;;1.92;81.18;102406.16;6075871;23;20022;-67
2022/03/24 04:16:11;;;;;;;4.13;3.92;;;;;;;1.52;81.93;102352.22;6059285;23;20022;-67
2022/03/24 04:18:40;;;;;;;5.57;4.68;;;;;;;1.82;81.62;102402.59;6080996;23;20790;-67
2022/03/24 04:21:07;;;;;;;3.90;3.72;;;;;;;1.65;82.28;102386.03;6080652;23;20017;-68
2022/03/24 04:23:39;;;;;;;4.10;3.92;;;;;;;1.79;82.05;102405.16;6081552;23;20028;-67
2022/03/24 04:26:06;;;;;;;3.30;3.17;;;;;;;1.77;81.07;102406.88;6051706;23;20014;-67
2022/03/24 04:28:33;;;;;;;4.75;4.55;;;;;;;1.75;82.28;102404.25;6082976;23;20152;-68
2022/03/24 04:30:59;;;;;;;3.60;3.40;;;;;;;1.74;82.79;102437.88;6082533;23;20018;-68
2022/03/24 04:33:26;;;;;;;3.28;3.15;;;;;;;0.68;82.48;102235.69;6082461;23;20072;-68
2022/03/24 04:35:53;;;;;;;2.70;2.60;;;;;;;1.70;83.61;102412.81;6085796;23;20033;-68
2022/03/24 04:38:20;;;;;;;3.00;2.90;;;;;;;1.64;83.65;102408.41;6088543;23;20026;-68
2022/03/24 04:40:47;;;;;;;5.05;4.75;;;;;;;1.58;84.25;102411.81;6081781;23;20499;-67
2022/03/24 04:43:14;;;;;;;3.38;3.28;;;;;;;1.56;83.88;102404.88;6089301;23;20044;-66
2022/03/24 04:45:46;;;;;;;4.88;4.68;;;;;;;0.11;84.20;102193.53;6080110;23;20014;-66
2022/03/24 04:48:13;;;;;;;2.88;2.78;;;;;;;1.47;83.92;102408.22;6092446;23;20092;-69
2022/03/24 04:50:39;;;;;;;4.95;4.75;;;;;;;1.44;83.55;102413.34;6090641;23;20053;-69
2022/03/24 04:53:08;;;;;;;4.03;3.72;;;;;;;1.41;83.80;102418.50;6090000;23;20026;-69
2022/03/24 04:55:35;;;;;;;4.07;3.92;;;;;;;1.17;84.52;102375.06;6094630;23;20084;-69
2022/03/24 04:58:03;;;;;;;4.25;4.05;;;;;;;0.73;84.07;102305.50;6091384;23;20038;-66
2022/03/24 05:00:29;;;;;;;3.75;3.55;;;;;;;1.35;83.87;102421.84;6089212;23;20089;-67
2022/03/24 05:02:56;;;;;;;2.90;2.80;;;;;;;0.31;84.21;102268.72;6092762;23;20022;-67
2022/03/24 05:05:23;;;;;;;2.80;2.70;;;;;;;1.29;84.07;102416.59;6070698;23;20022;-67
2022/03/24 05:07:49;;;;;;;4.07;3.88;;;;;;;1.16;83.51;102400.06;6117960;23;20034;-67
2022/03/24 05:10:16;;;;;;;2.97;2.88;;;;;;;0.93;83.80;102378.16;6089157;23;20069;-67
2022/03/24 05:12:43;;;;;;;5.55;5.32;;;;;;;1.14;84.39;102411.19;6107263;23;20029;-67
2022/03/24 05:15:10;;;;;;;3.13;3.03;;;;;;;1.19;84.61;102425.06;6096346;23;20419;-67
2022/03/24 05:17:37;;;;;;;4.40;4.20;;;;;;;1.15;85.28;102428.47;6089607;23;20096;-67
2022/03/24 05:20:05;;;;;;;2.70;2.60;;;;;;;0.12;84.59;102241.75;6095970;23;20021;-67
2022/03/24 05:22:31;;;;;;;3.35;3.25;;;;;;;1.21;84.14;102415.63;6088511;23;20110;-68
2022/03/24 05:24:58;;;;;;;2.60;2.50;;;;;;;0.77;84.09;102346.91;6090226;23;20013;-67
2022/03/24 05:27:24;;;;;;;2.80;2.70;;;;;;;1.24;84.79;102427.72;6091645;23;20093;-67
2022/03/24 05:29:51;;;;;;;3.33;3.22;;;;;;;1.25;84.92;102425.16;6090540;23;20081;-67
2022/03/24 05:32:17;;;;;;;3.28;3.17;;;;;;;0.01;85.27;102204.56;6095879;23;20022;-66
2022/03/24 05:34:44;;;;;;;4.57;4.38;;;;;;;1.21;85.45;102407.88;6090523;23;20081;-66
2022/03/24 05:37:11;;;;;;;3.30;3.20;;;;;;;0.96;84.76;102358.41;6081213;23;20372;-68
2022/03/24 05:39:38;;;;;;;4.50;4.30;;;;;;;1.34;85.25;102429.59;6070845;23;20025;-66
2022/03/24 05:42:05;;;;;;;2.90;2.80;;;;;;;1.21;84.41;102397.53;6084015;23;20049;-66
2022/03/24 05:44:31;;;;;;;4.30;4.13;;;;;;;1.41;84.89;102418.50;6092141;23;20056;-68
2022/03/24 05:46:58;;;;;;;3.08;2.97;;;;;;;1.44;84.64;102422.81;6086541;23;20018;-67
2022/03/24 05:49:26;;;;;;;2.80;2.70;;;;;;;1.48;84.45;102435.81;6090173;23;20013;-67
2022/03/24 05:51:53;;;;;;;2.97;2.88;;;;;;;1.51;84.37;102447.94;6089270;23;20586;-68
2022/03/24 05:54:20;;;;;;;2.70;2.60;;;;;;;1.58;84.87;102422.19;6091998;23;20034;-68
2022/03/24 05:56:48;;;;;;;5.07;4.88;;;;;;;1.64;84.25;102423.94;6082364;23;20021;-68
2022/03/24 05:59:15;;;;;;;2.70;2.60;;;;;;;1.68;84.84;102430.03;6094070;23;20024;-67
2022/03/24 06:01:44;;;;;;;4.85;4.65;;;;;;;1.73;84.34;102431.84;6080877;23;20503;-67
2022/03/24 06:04:15;;;;;;;2.70;2.60;;;;;;;1.78;84.40;102426.72;6083778;23;20574;-67
2022/03/24 06:06:43;;;;;;;5.03;4.82;;;;;;;1.81;84.20;102438.84;6083708;23;20046;-68
2022/03/24 06:09:10;;;;;;;2.95;2.85;;;;;;;1.59;84.48;102386.81;6077134;23;20532;-68
2022/03/24 06:11:37;;;;;;;5.65;5.25;;;;;;;0.85;82.76;102246.22;6081089;23;20030;-68
2022/03/24 06:14:07;;;;;;;3.50;3.33;;;;;;;1.94;83.06;102428.63;6085769;23;20028;-67
2022/03/24 06:16:35;;;;;;;4.10;3.90;;;;;;;1.98;83.03;102437.28;6087198;23;20526;-70
2022/03/24 06:19:02;;;;;;;3.80;3.60;;;;;;;1.96;82.88;102431.22;6061356;23;20011;-67
2022/03/24 06:21:29;;;;;;;2.78;2.67;;;;;;;0.89;83.01;102242.84;6084478;23;20708;-68
2022/03/24 06:23:56;;;;;;;2.90;2.80;;;;;;;2.07;83.23;102431.38;6064408;23;20097;-68
2022/03/24 06:26:23;;;;;;;3.28;3.17;;;;;;;0.93;82.76;102229.09;6099699;23;20033;-67
2022/03/24 06:28:52;;;;;;;4.05;3.80;;;;;;;2.29;82.38;102446.28;6084697;23;20105;-68
2022/03/24 06:31:19;;;;;;;3.75;3.53;;;;;;;2.35;82.77;102443.75;6084445;23;20499;-67
2022/03/24 06:33:48;;;;;;;6.03;5.72;;;;;;;1.45;82.36;102293.50;6076748;23;20033;-68
2022/03/24 06:36:15;;;;;;;2.95;2.85;;;;;;;2.54;82.26;102444.78;6072931;23;20567;-67
2022/03/24 06:38:42;;;;;;;3.58;3.38;;;;;;;2.64;82.90;102443.16;6088356;23;20458;-68
2022/03/24 06:41:08;;;;;;;4.07;3.75;;;;;;;2.13;82.58;102336.47;6077916;23;20026;-67
2022/03/24 06:43:36;;;;;;;5.35;4.95;;;;;;;2.88;82.42;102446.81;6078091;23;20533;-67
2022/03/24 06:46:06;;;;;;;3.85;3.65;;;;;;;2.10;82.37;102288.97;6083512;23;20871;-67
2022/03/24 06:48:33;;;;;;;4.97;4.78;;;;;;;2.07;81.46;102248.38;6078612;23;20040;-68
2022/03/24 06:50:59;;;;;;;3.00;2.90;;;;;;;3.35;82.23;102448.88;6084881;23;20412;-67
2022/03/24 06:53:26;;;;;;;3.40;3.30;;;;;;;3.53;82.46;102450.72;6080420;23;20107;-67
2022/03/24 06:55:53;;;;;;;3.97;3.78;;;;;;;2.82;81.99;102296.38;6075387;23;20017;-68
2022/03/24 06:58:19;;;;;;;3.10;3.00;;;;;;;3.77;82.00;102436.97;6084940;23;20097;-68
2022/03/24 07:00:45;;;;;;;6.10;5.22;;;;;;;2.49;81.07;102189.06;6099343;23;20618;-66
2022/03/24 07:03:12;;;;;;;3.45;3.35;;;;;;;3.55;80.54;102343.41;6086011;23;20045;-66
2022/03/24 07:05:39;;;;;;;4.85;4.65;;;;;;;4.08;79.65;102413.69;6074943;23;20026;-68
2022/03/24 07:08:08;;;;;;;3.30;3.20;;;;;;;4.53;79.12;102457.09;6053476;23;20097;-68
2022/03/24 07:10:34;;;;;;;6.07;5.72;;;;;;;4.69;78.34;102438.88;6080635;23;20049;-68
2022/03/24 07:13:01;;;;;;;4.38;3.90;;;;;;;3.65;77.57;102235.28;6052960;23;20026;-67
2022/03/24 07:15:28;;;;;;;11.65;3.83;;;;;;;5.17;77.60;102452.72;6083227;23;20080;-67
2022/03/24 07:17:55;;;;;;;4.25;4.05;;;;;;;5.09;75.59;102416.34;6081049;23;20037;-68
2022/03/24 07:20:23;;;;;;;4.50;4.20;;;;;;;5.56;75.07;102453.53;6081330;23;20301;-67
2022/03/24 07:22:49;;;;;;;4.35;4.15;;;;;;;5.71;74.46;102452.59;6053533;23;20057;-67
2022/03/24 07:25:16;;;;;;;3.55;3.42;;;;;;;5.77;73.77;102429.13;6086334;23;20018;-67
2022/03/24 07:27:43;;;;;;;4.70;4.50;;;;;;;6.03;73.43;102443.81;6079634;23;20086;-68
2022/03/24 07:30:10;;;;;;;3.40;3.28;;;;;;;6.34;72.01;102470.59;6083272;23;20108;-67
2022/03/24 07:32:37;;;;;;;5.88;5.57;;;;;;;6.57;71.82;102462.59;6080565;23;20069;-68
2022/03/24 07:35:04;;;;;;;4.10;3.90;;;;;;;6.69;71.14;102453.81;6085318;23;20026;-67
2022/03/24 07:37:31;;;;;;;3.75;3.60;;;;;;;6.73;69.08;102440.72;6082406;23;20037;-67
2022/03/24 07:39:58;;;;;;;4.03;3.83;;;;;;;6.84;69.07;102432.81;6080123;23;20107;-68
2022/03/24 07:42:25;;;;;;;4.57;4.28;;;;;;;6.12;68.75;102283.03;6084815;23;20029;-67
2022/03/24 07:44:51;;;;;;;4.32;4.13;;;;;;;7.24;67.98;102436.81;6104616;23;20131;-67
2022/03/24 07:47:18;;;;;;;3.90;3.70;;;;;;;7.45;67.83;102452.25;6088067;23;20080;-68
2022/03/24 07:49:46;;;;;;;19.40;5.90;;;;;;;7.66;66.07;102456.38;6081482;23;20022;-68
2022/03/24 07:52:14;;;;;;;4.47;4.20;;;;;;;7.76;65.54;102457.13;6087578;23;20120;-67
2022/03/24 07:55:06;;;;;;;7.10;6.10;;;;;;;7.98;64.18;102468.19;6083089;23;20022;-68
2022/03/24 07:57:33;;;;;;;5.00;4.80;;;;;;;8.09;65.02;102457.56;6076701;23;20476;-67
2022/03/24 08:00:00;;;;;;;3.80;3.70;;;;;;;8.18;65.17;102441.75;6085025;23;20022;-68
2022/03/24 08:02:26;;;;;;;4.10;3.90;;;;;;;7.94;64.10;102391.53;6076506;23;20393;-68
2022/03/24 08:04:53;;;;;;;5.05;4.75;;;;;;;8.45;65.12;102466.66;6080771;23;21090;-67
2022/03/24 08:07:21;;;;;;;4.38;4.15;;;;;;;8.58;64.21;102472.59;6052522;23;20030;-67
2022/03/24 08:09:49;;;;;;;5.57;5.28;;;;;;;8.47;63.78;102448.34;6105128;23;20081;-69
2022/03/24 08:12:15;;;;;;;4.53;4.22;;;;;;;8.75;62.20;102478.41;6073292;23;20053;-68
2022/03/24 08:14:42;;;;;;;6.00;5.70;;;;;;;8.70;62.48;102461.94;6082392;23;20028;-68
2022/03/24 08:17:08;;;;;;;5.25;4.90;;;;;;;8.88;62.14;102460.78;6091935;23;20018;-68
2022/03/24 08:19:34;;;;;;;5.07;4.88;;;;;;;9.03;61.02;102475.34;6111086;23;20076;-69
2022/03/24 08:22:02;;;;;;;3.90;3.70;;;;;;;9.21;61.83;102473.31;6083418;23;20095;-68
2022/03/24 08:24:29;;;;;;;6.13;5.72;;;;;;;9.42;61.24;102472.94;6086679;23;20077;-67
2022/03/24 08:26:55;;;;;;;5.25;4.95;;;;;;;9.55;60.56;102481.41;6052306;23;20041;-69
2022/03/24 08:29:22;;;;;;;4.55;4.35;;;;;;;9.45;59.42;102440.53;6079103;23;20014;-70
2022/03/24 08:31:49;;;;;;;5.47;5.18;;;;;;;9.78;59.24;102473.97;6081131;23;20080;-67
2022/03/24 08:34:16;;;;;;;4.72;4.47;;;;;;;8.88;60.03;102298.44;6097254;23;20020;-67
2022/03/24 08:36:43;;;;;;;6.97;6.57;;;;;;;8.90;59.97;102312.38;6081220;23;20376;-67
2022/03/24 08:39:09;;;;;;;4.43;4.22;;;;;;;9.81;58.90;102480.88;6103940;23;20073;-69
2022/03/24 08:41:36;;;;;;;5.25;4.85;;;;;;;9.84;59.33;102479.94;6083984;23;20614;-68
2022/03/24 08:44:03;;;;;;;4.78;4.47;;;;;;;9.64;59.04;102405.22;6081984;23;20116;-68
2022/03/24 08:46:30;;;;;;;5.38;5.07;;;;;;;9.32;58.61;102346.47;6091587;23;20588;-69
2022/03/24 08:48:56;;;;;;;4.75;4.55;;;;;;;10.02;58.43;102478.72;6081604;23;20014;-69
2022/03/24 08:51:23;;;;;;;5.38;5.05;;;;;;;10.22;59.25;102478.28;6089971;23;20024;-68
2022/03/24 08:53:49;;;;;;;5.13;4.82;;;;;;;10.13;57.49;102480.22;6065767;23;20019;-69
2022/03/24 08:56:16;;;;;;;6.32;5.93;;;;;;;10.19;58.11;102477.44;6092129;23;20088;-69
2022/03/24 08:58:43;;;;;;;7.28;6.93;;;;;;;10.28;57.67;102481.63;6062320;23;20026;-69
2022/03/24 09:01:10;;;;;;;5.72;5.43;;;;;;;10.47;57.66;102479.50;6082332;23;20017;-67
2022/03/24 09:03:38;;;;;;;7.40;6.65;;;;;;;10.47;57.75;102511.00;6071527;23;20085;-66
2022/03/24 09:06:06;;;;;;;4.72;4.53;;;;;;;10.56;58.26;102484.53;6065675;23;20025;-67
2022/03/24 09:08:33;;;;;;;6.10;5.80;;;;;;;9.44;58.71;102294.69;6082961;23;20599;-69
2022/03/24 09:10:59;;;;;;;5.07;4.88;;;;;;;10.77;57.40;102484.91;6059619;23;20014;-68
2022/03/24 09:13:26;;;;;;;5.57;5.22;;;;;;;10.68;57.96;102428.22;6082672;23;20532;-69
2022/03/24 09:15:53;;;;;;;4.50;4.30;;;;;;;10.77;54.96;102428.00;6085159;23;20037;-70
2022/03/24 09:18:19;;;;;;;4.70;4.50;;;;;;;10.82;55.31;102422.63;6081810;23;20357;-67
2022/03/24 09:20:46;;;;;;;6.60;6.30;;;;;;;11.34;55.04;102486.94;6076249;23;20652;-70
2022/03/24 09:23:13;;;;;;;5.35;5.05;;;;;;;11.38;52.74;102483.34;6087909;23;20080;-68
2022/03/24 09:25:39;;;;;;;9.40;6.45;;;;;;;11.40;54.20;102467.50;6054148;23;20042;-67
2022/03/24 09:28:06;;;;;;;5.32;4.82;;;;;;;11.86;53.21;102484.63;6081553;23;20034;-68
2022/03/24 09:30:35;;;;;;;6.53;6.13;;;;;;;11.98;50.57;102491.34;6080741;23;20471;-70
2022/03/24 09:33:03;;;;;;;6.10;5.35;;;;;;;12.20;50.47;102483.66;6058348;23;20353;-69
2022/03/24 09:35:29;;;;;;;5.35;5.05;;;;;;;12.02;45.27;102487.72;6096646;23;20077;-68
2022/03/24 09:37:56;;;;;;;5.63;5.22;;;;;;;11.15;45.68;102286.88;6099442;23;20033;-67
2022/03/24 09:40:22;;;;;;;5.57;5.15;;;;;;;12.56;44.73;102462.38;6105959;23;20097;-67
2022/03/24 09:42:49;;;;;;;6.85;6.38;;;;;;;11.55;43.96;102322.50;6086925;23;20782;-67
2022/03/24 09:45:16;;;;;;;6.70;6.05;;;;;;;12.87;43.32;102482.44;6056482;23;20046;-68
2022/03/24 09:47:43;;;;;;;8.68;7.85;;;;;;;11.82;44.25;102290.97;6072828;23;20540;-68
2022/03/24 09:50:11;;;;;;;5.85;5.47;;;;;;;13.22;43.83;102483.03;6072850;23;20352;-70
2022/03/24 09:52:38;;;;;;;8.35;7.57;;;;;;;12.85;46.83;102408.72;6076278;23;20056;-68
2022/03/24 09:55:07;;;;;;;5.32;5.03;;;;;;;13.33;44.15;102478.25;6063752;23;20104;-69
2022/03/24 09:57:34;;;;;;;7.55;6.85;;;;;;;13.40;47.03;102469.22;6077369;23;20504;-69
2022/03/24 10:00:10;;;;;;;5.68;5.28;;;;;;;13.24;47.09;102475.94;6059649;23;20034;-68
2022/03/24 10:02:37;;;;;;;8.02;7.43;;;;;;;12.10;47.40;102276.97;6082864;23;20056;-69
2022/03/24 10:05:06;;;;;;;6.38;5.90;;;;;;;13.43;46.69;102473.50;6036053;23;20014;-68
2022/03/24 10:07:45;;;;;;;6.65;6.15;;;;;;;13.57;46.20;102477.41;6067739;23;20049;-69
2022/03/24 10:10:26;;;;;;;7.40;6.78;;;;;;;13.59;47.86;102452.72;6075877;23;20020;-69
2022/03/24 10:12:53;;;;;;;6.10;5.70;;;;;;;13.79;45.85;102454.63;6079345;23;20460;-68
2022/03/24 10:15:20;;;;;;;7.85;7.22;;;;;;;13.04;44.61;102326.38;6065969;23;20077;-68
2022/03/24 10:17:56;;;;;;;7.30;6.88;;;;;;;13.06;46.12;102333.31;6071264;23;20049;-69
2022/03/24 10:20:30;;;;;;;6.53;6.15;;;;;;;14.00;44.86;102468.81;6067636;23;20033;-68
2022/03/24 10:23:05;;;;;;;6.07;5.57;;;;;;;13.70;45.69;102395.16;6077526;23;20022;-68
2022/03/24 10:25:39;;;;;;;6.10;5.80;;;;;;;14.04;46.55;102465.97;6057412;23;20044;-68
2022/03/24 10:28:10;;;;;;;7.18;6.65;;;;;;;14.20;44.91;102458.31;6065551;23;20100;-69
2022/03/24 10:30:52;;;;;;;10.75;7.78;;;;;;;14.35;43.69;102455.09;6074686;23;20026;-68
2022/03/24 10:33:36;;;;;;;7.80;7.10;;;;;;;14.55;45.16;102461.31;6068947;23;20022;-67
2022/03/24 10:36:14;;;;;;;8.75;7.95;;;;;;;14.45;44.04;102459.97;6068047;23;20041;-68
2022/03/24 10:38:42;;;;;;;9.07;8.25;;;;;;;14.37;44.01;102428.59;6075169;23;20155;-67
2022/03/24 10:41:30;;;;;;;7.10;6.55;;;;;;;14.84;43.97;102454.88;6068467;23;20687;-68
2022/03/24 10:44:09;;;;;;;9.23;7.38;;;;;;;15.02;43.87;102453.25;6078022;23;20022;-69
2022/03/24 10:46:41;;;;;;;11.38;9.57;;;;;;;15.15;42.06;102454.44;6066914;23;20451;-69
2022/03/24 10:49:25;;;;;;;7.45;6.85;;;;;;;15.45;39.65;102455.78;6062981;23;20014;-69
2022/03/24 10:51:55;;;;;;;7.15;6.65;;;;;;;15.67;39.60;102460.97;6062882;23;20638;-68
2022/03/24 10:54:41;;;;;;;7.15;6.55;;;;;;;15.82;38.85;102452.38;6073812;23;20282;-68
2022/03/24 10:57:18;;;;;;;7.55;6.68;;;;;;;15.90;40.55;102450.22;6045583;23;20092;-69
2022/03/24 10:59:58;;;;;;;9.00;8.15;;;;;;;15.58;43.14;102453.47;6074507;23;20273;-69
2022/03/24 11:02:27;;;;;;;9.32;8.23;;;;;;;15.49;41.75;102444.13;6067544;23;20483;-68
2022/03/24 11:04:58;;;;;;;10.90;7.57;;;;;;;15.72;40.16;102456.34;6077555;23;20455;-68
2022/03/24 11:07:26;;;;;;;6.78;6.38;;;;;;;14.63;38.57;102273.44;6076924;23;20530;-68
2022/03/24 11:09:53;;;;;;;9.07;8.02;;;;;;;14.65;37.42;102210.81;6074324;23;20513;-68
2022/03/24 11:12:29;;;;;;;7.50;6.90;;;;;;;15.80;37.30;102393.34;6075159;23;20094;-68
2022/03/24 11:15:02;;;;;;;7.35;6.85;;;;;;;16.16;36.11;102411.06;6062679;23;21465;-68
2022/03/24 11:17:31;;;;;;;9.00;8.15;;;;;;;16.37;36.39;102389.72;6033528;23;21001;-69
2022/03/24 11:20:06;;;;;;;7.15;6.53;;;;;;;16.94;32.42;102438.13;6080531;23;20053;-68
2022/03/24 11:23:01;;;;;;;8.55;7.75;;;;;;;15.86;29.96;102302.19;6053159;23;20046;-69
2022/03/24 11:25:29;;;;;;;7.03;6.38;;;;;;;17.10;30.72;102452.31;6027343;23;20014;-69
2022/03/24 11:27:56;;;;;;;7.03;6.60;;;;;;;17.12;27.38;102455.75;6065893;23;20416;-68
2022/03/24 11:30:24;;;;;;;6.18;5.80;;;;;;;17.10;27.59;102448.81;6063852;23;20259;-69
2022/03/24 11:32:53;;;;;;;7.90;7.13;;;;;;;17.20;27.84;102450.06;6022294;23;20154;-68
2022/03/24 11:35:20;;;;;;;7.93;7.18;;;;;;;17.15;27.92;102430.84;6080806;23;20329;-69
2022/03/24 11:37:50;;;;;;;6.85;6.45;;;;;;;17.51;27.67;102422.72;6044867;23;20007;-68